X  Schließen METAR Luftfahrt Wetterdaten        EDDE Erfurt
Temperatur
18°C Temperatur
13°C Taupunkt
73% Feuchtigkeit



Wind
30 km/h
18 MPS
8 M/S
16 KTS



240°
WSW
Aktuelle Wetterlage

Partly Cloudy with Light Rain Teilweise bewölkt , Leicht Regen
Luftdruck 1017 (hPa) - 30.04 (inHg)
Sichtweite 30 (Meile) - 48 (Km)
Flughafen
Flughafen Code EDDE

Position : Erfurt
Entfernung: 25 (Km)

Metar:
METAR EDDE 161050Z AUTO 24016KT 9999 -RA FEW046 18/13 Q1018 BECMG 25010KT

Zeit: 16.05.2022 12:50 CEST